createdAt,value
2017-09-19T00:02:03.085Z,88.14
2017-09-19T00:04:31.423Z,88.18
2017-09-19T00:07:00.627Z,88.22
2017-09-19T00:09:31.012Z,88.17
2017-09-19T00:12:01.238Z,88.15
2017-09-19T00:14:30.514Z,87.77
2017-09-19T00:17:02.614Z,87.58
2017-09-19T00:19:32.805Z,87.92
2017-09-19T00:22:04.273Z,88.23
2017-09-19T00:24:35.261Z,87.80
2017-09-19T00:27:07.460Z,87.77
2017-09-19T00:29:35.909Z,87.38
2017-09-19T00:32:04.240Z,87.67
2017-09-19T00:34:36.329Z,88.27
2017-09-19T00:37:05.612Z,88.54
2017-09-19T00:39:34.011Z,88.60
2017-09-19T00:42:14.928Z,88.73
2017-09-19T00:44:46.758Z,88.57
2017-09-19T00:47:15.098Z,88.05
2017-09-19T00:50:11.558Z,88.02
2017-09-19T00:52:41.573Z,88.05
2017-09-19T00:55:12.356Z,88.04
2017-09-19T00:57:40.900Z,88.07
2017-09-19T01:00:11.099Z,88.38
2017-09-19T01:02:40.415Z,88.04
2017-09-19T01:05:09.701Z,88.93
2017-09-19T01:07:38.098Z,88.37
2017-09-19T01:10:08.620Z,88.05
2017-09-19T01:12:41.928Z,88.56
2017-09-19T01:15:10.270Z,88.21
2017-09-19T01:17:38.661Z,88.26
2017-09-19T01:20:07.983Z,88.05
2017-09-19T01:22:37.071Z,88.17
2017-09-19T01:25:06.850Z,88.30
2017-09-19T01:27:36.501Z,88.28
2017-09-19T01:30:09.677Z,88.45
2017-09-19T01:32:38.185Z,88.57
2017-09-19T01:35:11.540Z,88.73
2017-09-19T01:37:43.256Z,88.67
2017-09-19T01:40:19.086Z,88.56
2017-09-19T01:42:47.402Z,88.86
2017-09-19T01:45:15.735Z,88.63
2017-09-19T01:48:12.506Z,88.38
2017-09-19T01:50:40.833Z,88.87
2017-09-19T01:53:13.445Z,88.90
2017-09-19T01:55:46.110Z,89.04
2017-09-19T01:58:15.725Z,89.17
2017-09-19T02:00:44.115Z,89.00
2017-09-19T02:03:22.463Z,89.07
2017-09-19T02:05:51.924Z,88.94
2017-09-19T02:08:20.289Z,89.03
2017-09-19T02:10:54.536Z,89.12
2017-09-19T02:13:29.059Z,89.08
2017-09-19T02:16:00.342Z,89.40
2017-09-19T02:18:34.984Z,89.59
2017-09-19T02:21:08.904Z,89.33
2017-09-19T02:23:40.687Z,89.27
2017-09-19T02:26:09.095Z,89.51
2017-09-19T02:28:42.696Z,89.29
2017-09-19T02:31:12.036Z,89.26
2017-09-19T02:33:43.478Z,89.18
2017-09-19T02:36:14.303Z,88.98
2017-09-19T02:38:42.646Z,88.86
2017-09-19T02:41:17.476Z,89.32
2017-09-19T02:43:47.699Z,89.75
2017-09-19T02:46:18.260Z,89.75
2017-09-19T02:48:52.448Z,89.32
2017-09-19T02:51:20.845Z,89.59
2017-09-19T02:53:51.068Z,89.52
2017-09-19T02:56:22.485Z,89.56
2017-09-19T02:59:07.401Z,89.09
2017-09-19T03:01:39.350Z,89.42
2017-09-19T03:04:08.849Z,89.39
2017-09-19T03:06:43.026Z,89.69
2017-09-19T03:09:11.466Z,89.59
2017-09-19T03:11:47.449Z,89.31
2017-09-19T03:14:22.608Z,89.04
2017-09-19T03:16:52.215Z,89.28
2017-09-19T03:19:20.609Z,89.18
2017-09-19T03:21:49.932Z,88.93
2017-09-19T03:24:22.623Z,89.67
2017-09-19T03:26:51.924Z,90.12
2017-09-19T03:29:27.645Z,89.81
2017-09-19T03:31:56.951Z,90.06
2017-09-19T03:34:25.361Z,89.50
2017-09-19T03:37:01.083Z,89.33
2017-09-19T03:39:29.764Z,89.84
2017-09-19T03:41:58.174Z,89.47
2017-09-19T03:44:27.272Z,89.21
2017-09-19T03:46:56.488Z,89.61
2017-09-19T03:49:28.232Z,89.50
2017-09-19T03:52:04.087Z,89.43
2017-09-19T03:54:34.506Z,89.22
2017-09-19T03:57:03.972Z,89.45
2017-09-19T03:59:32.491Z,90.28
2017-09-19T04:02:00.875Z,90.38
2017-09-19T04:04:31.433Z,89.92
2017-09-19T04:06:59.788Z,89.77
2017-09-19T04:09:30.796Z,89.63
2017-09-19T04:12:00.236Z,89.83
2017-09-19T04:14:29.772Z,89.53
2017-09-19T04:16:58.223Z,89.54
2017-09-19T04:19:27.520Z,89.42
2017-09-19T04:21:56.860Z,89.38
2017-09-19T04:24:31.007Z,89.60
2017-09-19T04:26:59.446Z,89.82
2017-09-19T04:29:28.717Z,89.57
2017-09-19T04:31:58.441Z,89.53
2017-09-19T04:34:28.562Z,89.83
2017-09-19T04:36:59.074Z,90.24
2017-09-19T04:39:28.397Z,90.02
2017-09-19T04:42:01.073Z,89.90
2017-09-19T04:44:32.213Z,89.65
2017-09-19T04:47:02.464Z,89.69
2017-09-19T04:49:39.373Z,89.82
2017-09-19T04:52:10.675Z,89.67
2017-09-19T04:54:39.888Z,90.05
2017-09-19T04:57:08.232Z,89.83
2017-09-19T04:59:37.570Z,90.39
2017-09-19T05:02:05.925Z,90.07
2017-09-19T05:04:34.344Z,90.39
2017-09-19T05:07:02.679Z,90.67
2017-09-19T05:09:31.012Z,90.84
2017-09-19T05:11:59.341Z,90.72
2017-09-19T05:14:27.661Z,91.16
2017-09-19T05:16:55.997Z,91.21
2017-09-19T05:19:24.292Z,91.04
2017-09-19T05:21:53.384Z,90.98
2017-09-19T05:24:22.061Z,91.35
2017-09-19T05:26:50.412Z,91.65
2017-09-19T05:29:18.726Z,91.97
2017-09-19T05:31:47.823Z,91.44
2017-09-19T05:34:16.936Z,91.32
2017-09-19T05:36:45.251Z,91.60
2017-09-19T05:39:13.588Z,91.81
2017-09-19T05:41:41.913Z,91.92
2017-09-19T05:44:10.248Z,91.84
2017-09-19T05:46:39.349Z,91.85
2017-09-19T05:49:07.658Z,91.91
2017-09-19T05:51:35.996Z,91.96
2017-09-19T05:54:05.094Z,91.90
2017-09-19T05:56:33.419Z,91.69
2017-09-19T05:59:01.756Z,91.69
2017-09-19T06:01:30.853Z,91.65
2017-09-19T06:03:59.178Z,91.32
2017-09-19T06:06:27.522Z,91.41
2017-09-19T06:12:09.220Z,90.88
2017-09-19T06:14:38.391Z,91.02
2017-09-19T06:17:06.738Z,91.06
2017-09-19T06:19:35.590Z,91.25
2017-09-19T06:22:03.919Z,91.15
2017-09-19T06:24:32.246Z,91.38
2017-09-19T06:27:01.343Z,91.16
2017-09-19T06:29:30.432Z,90.71
2017-09-19T06:31:58.775Z,90.70
2017-09-19T06:34:27.092Z,90.96
2017-09-19T06:36:55.426Z,90.94
2017-09-19T06:39:23.760Z,90.74
2017-09-19T06:41:52.873Z,90.82
2017-09-19T06:44:21.201Z,90.74
2017-09-19T06:46:50.316Z,90.58
2017-09-19T06:49:18.660Z,89.97
2017-09-19T06:51:47.003Z,89.78
2017-09-19T06:54:15.377Z,89.22
2017-09-19T06:56:43.690Z,88.56
2017-09-19T06:59:12.036Z,87.94
2017-09-19T07:01:40.385Z,87.20
2017-09-19T07:04:08.732Z,87.15
2017-09-19T07:06:37.085Z,86.94
2017-09-19T07:09:05.482Z,87.58
2017-09-19T07:11:33.804Z,87.42
2017-09-19T07:14:02.164Z,87.06
2017-09-19T07:16:30.514Z,86.78
2017-09-19T07:18:58.846Z,86.44
2017-09-19T07:21:27.211Z,86.36
2017-09-19T07:23:55.555Z,86.75
2017-09-19T07:26:23.889Z,87.56
2017-09-19T07:28:52.973Z,88.15
2017-09-19T07:31:21.316Z,88.05
2017-09-19T07:33:49.645Z,87.48
2017-09-19T07:36:18.049Z,87.34
2017-09-19T07:38:46.392Z,87.79
2017-09-19T07:41:14.742Z,86.52
2017-09-19T07:43:43.077Z,85.07
2017-09-19T07:46:11.403Z,85.26
2017-09-19T07:48:39.754Z,86.13
2017-09-19T07:51:08.076Z,86.62
2017-09-19T07:53:36.441Z,85.07
2017-09-19T07:56:04.768Z,84.45
2017-09-19T07:58:33.874Z,83.27
2017-09-19T08:01:02.248Z,82.59
2017-09-19T08:03:30.563Z,82.21
2017-09-19T08:05:58.908Z,80.78
2017-09-19T08:08:28.015Z,80.72
2017-09-19T08:10:56.355Z,81.05
2017-09-19T08:13:24.717Z,81.27
2017-09-19T08:15:53.073Z,80.66
2017-09-19T08:18:21.443Z,80.28
2017-09-19T08:20:49.786Z,80.13
2017-09-19T08:23:18.903Z,79.31
2017-09-19T08:25:47.242Z,79.37
2017-09-19T08:28:15.581Z,78.34
2017-09-19T08:30:43.921Z,78.55
2017-09-19T08:33:13.065Z,78.73
2017-09-19T08:35:41.405Z,77.43
2017-09-19T08:38:10.492Z,75.86
2017-09-19T08:40:38.842Z,75.32
2017-09-19T08:43:07.169Z,74.38
2017-09-19T08:45:35.509Z,75.25
2017-09-19T08:48:03.818Z,76.10
2017-09-19T08:50:32.909Z,75.89
2017-09-19T08:53:01.269Z,76.97
2017-09-19T08:55:29.603Z,75.90
2017-09-19T08:57:57.952Z,75.40
2017-09-19T09:00:27.044Z,75.62
2017-09-19T09:02:56.147Z,73.75
2017-09-19T09:05:24.455Z,74.18
2017-09-19T09:07:52.789Z,72.30
2017-09-19T09:10:21.136Z,72.66
2017-09-19T09:12:49.445Z,74.18
2017-09-19T09:15:17.779Z,76.09
2017-09-19T09:17:46.100Z,74.80
2017-09-19T09:20:14.455Z,74.94
2017-09-19T09:22:42.806Z,74.55
2017-09-19T09:25:11.118Z,73.61
2017-09-19T09:27:39.462Z,73.91
2017-09-19T09:30:07.796Z,75.54
2017-09-19T09:32:36.134Z,74.72
2017-09-19T09:35:05.238Z,74.48
2017-09-19T09:37:33.545Z,75.14
2017-09-19T09:40:01.884Z,73.97
2017-09-19T09:42:30.208Z,76.04
2017-09-19T09:44:58.547Z,75.98
2017-09-19T09:47:26.887Z,73.17
2017-09-19T09:49:55.975Z,73.63
2017-09-19T09:52:25.106Z,75.45
2017-09-19T09:54:53.445Z,75.14
2017-09-19T09:57:22.568Z,71.54
2017-09-19T09:59:57.032Z,69.72
2017-09-19T10:02:25.381Z,69.80
2017-09-19T10:04:53.742Z,70.47
2017-09-19T10:07:22.855Z,73.33
2017-09-19T10:09:51.217Z,73.57
2017-09-19T10:12:19.543Z,70.60
2017-09-19T10:14:47.946Z,70.51
2017-09-19T10:17:16.304Z,70.81
2017-09-19T10:19:44.623Z,72.69
2017-09-19T10:22:13.744Z,73.44
2017-09-19T10:24:42.066Z,69.81
2017-09-19T10:27:10.887Z,69.06
2017-09-19T10:29:39.216Z,68.26
2017-09-19T10:32:07.534Z,68.46
2017-09-19T10:34:36.535Z,68.48
2017-09-19T10:37:04.860Z,67.37
2017-09-19T10:39:33.203Z,67.17
2017-09-19T10:42:02.298Z,70.05
2017-09-19T10:44:30.637Z,68.84
2017-09-19T10:46:58.983Z,69.42
2017-09-19T10:49:28.153Z,69.36
2017-09-19T10:51:56.505Z,68.79
2017-09-19T10:54:24.829Z,70.25
2017-09-19T10:56:53.164Z,71.13
2017-09-19T10:59:21.493Z,66.30
2017-09-19T11:01:49.841Z,66.69
2017-09-19T11:04:18.178Z,66.95
2017-09-19T11:06:46.555Z,67.76
2017-09-19T11:09:14.902Z,74.66
2017-09-19T11:11:43.984Z,77.59
2017-09-19T11:14:13.084Z,79.25
2017-09-19T11:16:41.407Z,79.30
2017-09-19T11:19:10.834Z,79.90
2017-09-19T11:21:39.166Z,79.52
2017-09-19T11:24:07.482Z,79.74
2017-09-19T11:26:35.817Z,79.81
2017-09-19T11:29:04.908Z,79.79
2017-09-19T11:31:33.242Z,79.72
2017-09-19T11:34:01.586Z,78.86
2017-09-19T11:36:29.951Z,79.25
2017-09-19T11:38:59.056Z,78.43
2017-09-19T11:41:27.383Z,78.30
2017-09-19T11:43:55.888Z,76.16
2017-09-19T11:46:24.216Z,76.05
2017-09-19T11:48:52.554Z,76.53
2017-09-19T11:51:20.881Z,72.47
2017-09-19T11:53:49.614Z,74.76
2017-09-19T11:56:17.944Z,72.87
2017-09-19T11:58:46.259Z,69.03
2017-09-19T12:01:14.589Z,70.63
2017-09-19T12:03:42.895Z,67.43
2017-09-19T12:06:11.226Z,71.37
2017-09-19T12:08:39.552Z,69.65
2017-09-19T12:11:07.932Z,71.16
2017-09-19T12:13:36.283Z,68.60
2017-09-19T12:16:05.578Z,68.58
2017-09-19T12:18:33.915Z,69.63
2017-09-19T12:21:02.263Z,65.77
2017-09-19T12:23:30.608Z,64.39
2017-09-19T12:25:59.729Z,64.48
2017-09-19T12:28:28.070Z,66.45
2017-09-19T12:30:57.156Z,63.05
2017-09-19T12:33:25.484Z,63.50
2017-09-19T12:35:53.829Z,64.44
2017-09-19T12:38:22.921Z,64.97
2017-09-19T12:40:51.266Z,65.16
2017-09-19T12:43:19.616Z,65.41
2017-09-19T12:45:48.388Z,63.73
2017-09-19T12:48:16.711Z,63.88
2017-09-19T12:50:45.049Z,63.94
2017-09-19T12:53:13.383Z,64.39
2017-09-19T12:55:41.725Z,64.86
2017-09-19T12:58:10.071Z,64.72
2017-09-19T13:00:38.420Z,60.34
2017-09-19T13:03:07.135Z,58.55
2017-09-19T13:05:36.241Z,60.02
2017-09-19T13:08:04.564Z,59.10
2017-09-19T13:10:32.896Z,61.12
2017-09-19T13:13:02.042Z,62.50
2017-09-19T13:15:30.401Z,62.54
2017-09-19T13:18:00.638Z,63.29
2017-09-19T13:20:29.001Z,65.10
2017-09-19T13:22:57.365Z,67.19
2017-09-19T13:25:25.686Z,65.51
2017-09-19T13:27:54.028Z,65.54
2017-09-19T13:30:22.340Z,66.07
2017-09-19T13:33:08.206Z,67.07
2017-09-19T13:35:37.694Z,68.61
2017-09-19T13:38:06.118Z,69.58
2017-09-19T13:40:35.367Z,70.56
2017-09-19T13:43:04.765Z,72.42
2017-09-19T13:45:33.083Z,71.83
2017-09-19T13:48:01.417Z,72.16
2017-09-19T13:50:32.596Z,68.91
2017-09-19T13:53:01.644Z,69.27
2017-09-19T13:55:30.008Z,70.68
2017-09-19T13:57:58.332Z,72.01
2017-09-19T14:00:28.956Z,70.93
2017-09-19T14:03:01.827Z,70.75
2017-09-19T14:05:30.485Z,70.04
2017-09-19T14:08:00.752Z,69.53
2017-09-19T14:10:29.878Z,70.46
2017-09-19T14:12:59.711Z,70.07
2017-09-19T14:15:28.034Z,69.93
2017-09-19T14:17:58.271Z,70.55
2017-09-19T14:20:29.391Z,70.97
2017-09-19T14:22:58.201Z,71.04
2017-09-19T14:25:27.703Z,70.33
2017-09-19T14:27:56.997Z,70.03
2017-09-19T14:30:26.327Z,70.38
2017-09-19T14:32:55.616Z,69.92
2017-09-19T14:35:25.811Z,69.69
2017-09-19T14:37:54.209Z,66.62
2017-09-19T14:40:24.452Z,66.94
2017-09-19T14:42:52.813Z,66.14
2017-09-19T14:45:21.207Z,67.05
2017-09-19T14:47:49.587Z,66.57
2017-09-19T14:50:18.867Z,66.53
2017-09-19T14:52:47.293Z,66.87
2017-09-19T14:55:15.631Z,66.33
2017-09-19T14:57:45.254Z,66.32
2017-09-19T15:00:17.931Z,67.74
2017-09-19T15:02:47.513Z,68.27
2017-09-19T15:05:16.629Z,68.22
2017-09-19T15:07:46.752Z,67.96
2017-09-19T15:10:16.071Z,68.62
2017-09-19T15:12:44.436Z,68.79
2017-09-19T15:15:12.819Z,70.10
2017-09-19T15:17:42.103Z,70.74
2017-09-19T15:20:10.536Z,71.26
2017-09-19T15:22:40.298Z,73.26
2017-09-19T15:25:08.824Z,76.46
2017-09-19T15:27:37.202Z,77.36
2017-09-19T15:30:05.557Z,76.93
2017-09-19T15:32:34.887Z,78.42
2017-09-19T15:35:03.243Z,77.15
2017-09-19T15:37:32.563Z,76.58
2017-09-19T15:40:00.921Z,75.42
2017-09-19T15:42:31.166Z,75.45
2017-09-19T15:44:59.519Z,74.98
2017-09-19T15:47:30.949Z,74.54
2017-09-19T15:49:59.361Z,74.50
2017-09-19T15:52:28.673Z,73.48
2017-09-19T15:54:57.065Z,73.52
2017-09-19T15:57:25.403Z,72.17
2017-09-19T15:59:53.815Z,73.34
2017-09-19T16:02:22.178Z,74.21
2017-09-19T16:04:56.198Z,74.39
2017-09-19T16:07:27.394Z,76.00
2017-09-19T16:09:55.928Z,77.14
2017-09-19T16:12:25.919Z,77.23
2017-09-19T16:14:56.357Z,78.17
2017-09-19T16:17:28.749Z,77.67
2017-09-19T16:19:59.889Z,76.74
2017-09-19T16:22:29.521Z,78.06
2017-09-19T16:25:03.449Z,79.07
2017-09-19T16:27:33.971Z,79.87
2017-09-19T16:30:02.335Z,80.11
2017-09-19T16:32:30.750Z,80.53
2017-09-19T16:34:59.115Z,79.81
2017-09-19T16:37:28.374Z,80.26
2017-09-19T16:40:02.304Z,80.78
2017-09-19T16:42:31.553Z,81.29
2017-09-19T16:45:01.287Z,81.34
2017-09-19T16:47:30.047Z,81.15
2017-09-19T16:49:59.906Z,81.03
2017-09-19T16:52:29.166Z,81.36
2017-09-19T16:54:57.487Z,81.17
2017-09-19T16:57:28.950Z,81.59
2017-09-19T16:59:57.314Z,81.98
2017-09-19T17:02:28.508Z,82.73
2017-09-19T17:04:56.866Z,83.32
2017-09-19T17:07:25.254Z,82.62
2017-09-19T17:09:55.757Z,82.58
2017-09-19T17:12:25.360Z,82.80
2017-09-19T17:14:54.674Z,82.79
2017-09-19T17:17:23.049Z,82.64
2017-09-19T17:19:52.385Z,83.33
2017-09-19T17:22:20.703Z,83.75
2017-09-19T17:24:49.818Z,84.74
2017-09-19T17:27:20.872Z,84.57
2017-09-19T17:29:50.868Z,84.84
2017-09-19T17:32:25.821Z,84.77
2017-09-19T17:35:01.370Z,85.03
2017-09-19T17:37:33.809Z,85.63
2017-09-19T17:40:03.379Z,86.32
2017-09-19T17:42:32.482Z,87.32
2017-09-19T17:45:01.037Z,87.29
2017-09-19T17:47:29.431Z,87.28
2017-09-19T17:49:57.779Z,86.11
2017-09-19T17:52:27.164Z,86.92
2017-09-19T17:54:57.687Z,87.54
2017-09-19T17:57:28.422Z,86.66
2017-09-19T18:00:03.551Z,86.85
2017-09-19T18:02:32.952Z,87.32
2017-09-19T18:05:01.322Z,87.35
2017-09-19T18:07:30.597Z,87.62
2017-09-19T18:09:58.991Z,87.67
2017-09-19T18:12:27.367Z,87.30
2017-09-19T18:14:55.731Z,87.51
2017-09-19T18:17:25.074Z,87.48
2017-09-19T18:19:55.962Z,86.76
2017-09-19T18:22:24.645Z,87.27
2017-09-19T18:24:55.094Z,87.33
2017-09-19T18:27:23.464Z,87.93
2017-09-19T18:29:51.843Z,87.84
2017-09-19T18:32:21.192Z,88.07
2017-09-19T18:34:49.557Z,87.42
2017-09-19T18:37:18.464Z,87.83
2017-09-19T18:39:48.447Z,87.85
2017-09-19T18:42:20.037Z,87.69
2017-09-19T18:44:49.706Z,87.64
2017-09-19T18:47:18.894Z,87.57
2017-09-19T18:49:48.943Z,87.48
2017-09-19T18:52:17.388Z,87.64
2017-09-19T18:54:46.737Z,87.60
2017-09-19T18:57:15.116Z,87.60
2017-09-19T18:59:48.680Z,87.59
2017-09-19T19:02:18.009Z,87.96
2017-09-19T19:04:48.561Z,88.55
2017-09-19T19:07:22.752Z,88.46
2017-09-19T19:09:54.864Z,88.03
2017-09-19T19:12:24.512Z,88.18
2017-09-19T19:14:53.719Z,87.78
2017-09-19T19:17:22.181Z,88.49
2017-09-19T19:19:52.384Z,88.06
2017-09-19T19:22:21.958Z,87.71
2017-09-19T19:24:51.637Z,88.70
2017-09-19T19:27:20.544Z,88.09
2017-09-19T19:29:49.578Z,87.40
2017-09-19T19:32:18.600Z,88.51
2017-09-19T19:34:48.290Z,88.48
2017-09-19T19:37:19.363Z,87.95
2017-09-19T19:40:00.532Z,88.04
2017-09-19T19:42:30.254Z,88.82
2017-09-19T19:44:59.978Z,88.16
2017-09-19T19:47:28.794Z,88.30
2017-09-19T19:49:57.216Z,88.29
2017-09-19T19:52:25.637Z,88.56
2017-09-19T19:54:54.008Z,88.62
2017-09-19T19:57:23.337Z,88.21
2017-09-19T19:59:51.948Z,88.51
2017-09-19T20:02:23.998Z,88.23
2017-09-19T20:04:52.363Z,88.41
2017-09-19T20:07:21.662Z,87.99
2017-09-19T20:09:50.373Z,88.45
2017-09-19T20:12:18.770Z,88.98
2017-09-19T20:14:54.465Z,88.82
2017-09-19T20:17:22.833Z,88.56
2017-09-19T20:19:53.087Z,88.46
2017-09-19T20:22:23.701Z,88.29
2017-09-19T20:24:53.230Z,88.74
2017-09-19T20:27:25.929Z,88.95
2017-09-19T20:29:54.685Z,88.53
2017-09-19T20:32:25.131Z,88.67
2017-09-19T20:34:57.806Z,88.25
2017-09-19T20:37:26.440Z,88.49
2017-09-19T20:39:54.858Z,87.96
2017-09-19T20:42:23.244Z,87.72
2017-09-19T20:44:51.664Z,87.75
2017-09-19T20:47:20.277Z,87.73
2017-09-19T20:49:49.627Z,87.47
2017-09-19T20:52:18.024Z,87.23
2017-09-19T20:54:46.420Z,87.95
2017-09-19T20:57:16.277Z,87.44
2017-09-19T20:59:47.425Z,87.40
2017-09-19T21:02:15.962Z,87.07
2017-09-19T21:04:50.969Z,87.39
2017-09-19T21:07:25.774Z,87.89
2017-09-19T21:10:03.598Z,88.22
2017-09-19T21:12:37.561Z,87.56
2017-09-19T21:15:12.291Z,87.58
2017-09-19T21:17:47.122Z,87.66
2017-09-19T21:20:14.981Z,87.12
2017-09-19T21:22:51.771Z,87.92
2017-09-19T21:25:21.907Z,88.22
2017-09-19T21:27:51.203Z,88.05
2017-09-19T21:30:22.618Z,87.75
2017-09-19T21:32:51.029Z,87.33
2017-09-19T21:35:20.360Z,87.08
2017-09-19T21:37:50.895Z,87.45
2017-09-19T21:40:20.155Z,87.20
2017-09-19T21:42:49.542Z,87.17
2017-09-19T21:45:17.865Z,87.11
2017-09-19T21:47:46.650Z,87.14
2017-09-19T21:50:19.535Z,87.77
2017-09-19T21:52:50.022Z,88.61
2017-09-19T21:55:20.316Z,88.73
2017-09-19T21:57:49.574Z,88.31
2017-09-19T22:00:25.024Z,88.25
2017-09-19T22:02:57.409Z,87.80
2017-09-19T22:05:26.720Z,87.18
2017-09-19T22:07:57.241Z,87.15
2017-09-19T22:10:27.202Z,87.19
2017-09-19T22:12:55.533Z,86.87
2017-09-19T22:15:29.139Z,87.28
2017-09-19T22:17:58.425Z,87.00
2017-09-19T22:20:35.089Z,87.73
2017-09-19T22:23:03.464Z,87.73
2017-09-19T22:25:32.793Z,88.64
2017-09-19T22:28:02.123Z,88.44
2017-09-19T22:30:30.480Z,89.04
2017-09-19T22:32:59.795Z,89.17
2017-09-19T22:35:31.522Z,88.65
2017-09-19T22:38:01.131Z,88.64
2017-09-19T22:40:36.551Z,88.75
2017-09-19T22:43:05.274Z,88.79
2017-09-19T22:45:33.654Z,89.83
2017-09-19T22:48:04.797Z,89.65
2017-09-19T22:50:37.793Z,89.43
2017-09-19T22:53:07.989Z,89.18
2017-09-19T22:55:36.398Z,88.99
2017-09-19T22:58:09.975Z,89.41
2017-09-19T23:00:38.644Z,89.36
2017-09-19T23:03:07.036Z,88.79
2017-09-19T23:05:36.339Z,88.34
2017-09-19T23:08:10.886Z,88.68
2017-09-19T23:10:47.220Z,89.00
2017-09-19T23:13:17.480Z,89.24
2017-09-19T23:15:46.811Z,90.20
2017-09-19T23:18:17.328Z,90.56
2017-09-19T23:20:45.670Z,90.39
2017-09-19T23:23:14.074Z,90.58
2017-09-19T23:25:43.384Z,89.52
2017-09-19T23:28:11.749Z,89.07
2017-09-19T23:30:42.901Z,88.79
2017-09-19T23:33:12.236Z,88.58
2017-09-19T23:35:42.986Z,88.43
2017-09-19T23:38:17.253Z,88.26
2017-09-19T23:40:46.567Z,88.22
2017-09-19T23:43:14.918Z,88.24
2017-09-19T23:45:43.324Z,88.14
2017-09-19T23:48:12.620Z,87.93
2017-09-19T23:50:41.991Z,87.84
2017-09-19T23:53:10.353Z,87.46
2017-09-19T23:55:38.673Z,87.56
2017-09-19T23:58:07.075Z,87.20
